sensor_id;sensor_type;location;lat;lon;timestamp;pressure;altitude;pressure_sealevel;temperature;humidity
39789;BME280;25478;42.626;23.320;2022-08-01T00:00:41;93082.75;;;18.14;56.97
39789;BME280;25478;42.626;23.320;2022-08-01T00:03:06;93083.91;;;18.13;56.50
39789;BME280;25478;42.626;23.320;2022-08-01T00:05:32;93084.03;;;18.10;56.43
39789;BME280;25478;42.626;23.320;2022-08-01T00:07:58;93069.81;;;18.00;56.19
39789;BME280;25478;42.626;23.320;2022-08-01T00:10:23;93076.97;;;18.03;55.91
39789;BME280;25478;42.626;23.320;2022-08-01T00:12:49;93078.13;;;18.02;55.77
39789;BME280;25478;42.626;23.320;2022-08-01T00:15:16;93045.91;;;17.84;55.67
39789;BME280;25478;42.626;23.320;2022-08-01T00:17:42;93081.28;;;17.97;55.42
39789;BME280;25478;42.626;23.320;2022-08-01T00:20:10;93075.66;;;17.95;54.76
39789;BME280;25478;42.626;23.320;2022-08-01T00:22:37;93057.72;;;17.83;54.30
39789;BME280;25478;42.626;23.320;2022-08-01T00:25:04;93076.50;;;17.92;53.85
39789;BME280;25478;42.626;23.320;2022-08-01T00:27:30;93073.09;;;17.91;53.82
39789;BME280;25478;42.626;23.320;2022-08-01T00:29:56;93078.81;;;17.90;53.53
39789;BME280;25478;42.626;23.320;2022-08-01T00:32:22;93075.09;;;17.87;53.38
39789;BME280;25478;42.626;23.320;2022-08-01T00:34:48;93064.00;;;17.89;53.31
39789;BME280;25478;42.626;23.320;2022-08-01T00:37:13;93074.34;;;17.87;53.09
39789;BME280;25478;42.626;23.320;2022-08-01T00:39:39;93063.44;;;17.81;53.03
39789;BME280;25478;42.626;23.320;2022-08-01T00:42:10;93070.19;;;17.86;52.49
39789;BME280;25478;42.626;23.320;2022-08-01T00:44:37;93067.53;;;17.86;52.32
39789;BME280;25478;42.626;23.320;2022-08-01T00:47:03;93067.53;;;17.86;52.12
39789;BME280;25478;42.626;23.320;2022-08-01T00:49:28;93067.94;;;17.84;51.52
39789;BME280;25478;42.626;23.320;2022-08-01T00:51:54;93066.03;;;17.85;51.55
39789;BME280;25478;42.626;23.320;2022-08-01T00:54:20;93046.91;;;17.73;51.25
39789;BME280;25478;42.626;23.320;2022-08-01T00:56:46;93055.97;;;17.76;50.92
39789;BME280;25478;42.626;23.320;2022-08-01T00:59:13;93072.19;;;17.82;50.89
39789;BME280;25478;42.626;23.320;2022-08-01T01:01:39;93051.91;;;17.71;50.96
39789;BME280;25478;42.626;23.320;2022-08-01T01:04:05;93052.66;;;17.72;50.96
39789;BME280;25478;42.626;23.320;2022-08-01T01:14:37;93059.13;;;17.71;52.04
39789;BME280;25478;42.626;23.320;2022-08-01T01:17:06;93048.97;;;17.66;52.14
39789;BME280;25478;42.626;23.320;2022-08-01T01:19:38;93032.50;;;17.55;52.39
39789;BME280;25478;42.626;23.320;2022-08-01T01:22:21;93041.16;;;17.59;52.60
39789;BME280;25478;42.626;23.320;2022-08-01T01:30:41;93041.41;;;17.48;52.56
39789;BME280;25478;42.626;23.320;2022-08-01T01:33:10;93033.53;;;17.44;52.26
39789;BME280;25478;42.626;23.320;2022-08-01T01:35:39;93035.44;;;17.44;51.80
39789;BME280;25478;42.626;23.320;2022-08-01T01:38:09;93020.81;;;17.36;50.93
39789;BME280;25478;42.626;23.320;2022-08-01T01:40:37;93030.13;;;17.44;50.14
39789;BME280;25478;42.626;23.320;2022-08-01T01:43:04;93015.75;;;17.41;49.25
39789;BME280;25478;42.626;23.320;2022-08-01T01:45:34;93017.41;;;17.52;49.04
39789;BME280;25478;42.626;23.320;2022-08-01T01:48:01;93003.50;;;17.44;48.37
39789;BME280;25478;42.626;23.320;2022-08-01T01:50:28;93012.13;;;17.48;48.27
39789;BME280;25478;42.626;23.320;2022-08-01T01:52:55;92999.69;;;17.45;48.39
39789;BME280;25478;42.626;23.320;2022-08-01T01:55:23;93010.66;;;17.47;48.10
39789;BME280;25478;42.626;23.320;2022-08-01T01:57:50;93027.13;;;17.58;47.90
39789;BME280;25478;42.626;23.320;2022-08-01T02:00:17;93022.19;;;17.57;47.91
39789;BME280;25478;42.626;23.320;2022-08-01T02:02:44;93022.28;;;17.53;48.16
39789;BME280;25478;42.626;23.320;2022-08-01T02:05:11;93020.47;;;17.50;48.13
39789;BME280;25478;42.626;23.320;2022-08-01T02:07:38;93022.78;;;17.48;47.86
39789;BME280;25478;42.626;23.320;2022-08-01T02:10:05;93031.94;;;17.47;47.67
39789;BME280;25478;42.626;23.320;2022-08-01T02:12:35;93022.88;;;17.44;47.49
39789;BME280;25478;42.626;23.320;2022-08-01T02:15:02;93016.50;;;17.42;47.65
39789;BME280;25478;42.626;23.320;2022-08-01T02:17:30;93013.47;;;17.40;47.10
39789;BME280;25478;42.626;23.320;2022-08-01T02:19:56;93008.16;;;17.40;46.80
39789;BME280;25478;42.626;23.320;2022-08-01T02:22:41;93009.25;;;17.42;46.58
39789;BME280;25478;42.626;23.320;2022-08-01T02:27:53;93008.84;;;17.44;46.39
39789;BME280;25478;42.626;23.320;2022-08-01T02:30:20;93010.00;;;17.43;46.55
39789;BME280;25478;42.626;23.320;2022-08-01T02:32:51;92990.38;;;17.37;46.57
39789;BME280;25478;42.626;23.320;2022-08-01T02:35:26;92999.44;;;17.39;46.59
39789;BME280;25478;42.626;23.320;2022-08-01T02:37:53;93013.72;;;17.45;46.54
39789;BME280;25478;42.626;23.320;2022-08-01T02:40:20;93008.72;;;17.48;46.40
39789;BME280;25478;42.626;23.320;2022-08-01T02:42:50;93000.69;;;17.51;46.36
39789;BME280;25478;42.626;23.320;2022-08-01T02:45:17;93003.97;;;17.55;46.14
39789;BME280;25478;42.626;23.320;2022-08-01T02:47:44;92997.84;;;17.58;46.37
39789;BME280;25478;42.626;23.320;2022-08-01T02:50:12;93000.06;;;17.60;46.47
39789;BME280;25478;42.626;23.320;2022-08-01T02:52:40;93004.56;;;17.63;46.31
39789;BME280;25478;42.626;23.320;2022-08-01T02:55:08;92988.59;;;17.63;46.09
39789;BME280;25478;42.626;23.320;2022-08-01T02:57:36;92995.31;;;17.67;46.18
39789;BME280;25478;42.626;23.320;2022-08-01T03:00:04;92998.31;;;17.69;46.08
39789;BME280;25478;42.626;23.320;2022-08-01T03:02:32;92992.59;;;17.71;46.07
39789;BME280;25478;42.626;23.320;2022-08-01T03:05:00;92989.91;;;17.71;46.51
39789;BME280;25478;42.626;23.320;2022-08-01T03:07:26;92991.84;;;17.70;46.63
39789;BME280;25478;42.626;23.320;2022-08-01T03:09:56;92992.97;;;17.69;46.76
39789;BME280;25478;42.626;23.320;2022-08-01T03:12:26;92992.22;;;17.69;47.02
39789;BME280;25478;42.626;23.320;2022-08-01T03:14:54;93001.38;;;17.68;46.88
39789;BME280;25478;42.626;23.320;2022-08-01T03:17:23;93002.13;;;17.68;47.05
39789;BME280;25478;42.626;23.320;2022-08-01T03:19:51;92997.97;;;17.67;46.84
39789;BME280;25478;42.626;23.320;2022-08-01T03:22:18;92996.81;;;17.68;47.09
39789;BME280;25478;42.626;23.320;2022-08-01T03:24:49;93002.88;;;17.69;47.45
39789;BME280;25478;42.626;23.320;2022-08-01T03:27:18;92993.81;;;17.66;47.41
39789;BME280;25478;42.626;23.320;2022-08-01T03:29:44;92995.31;;;17.67;47.32
39789;BME280;25478;42.626;23.320;2022-08-01T03:32:11;93003.63;;;17.69;47.01
39789;BME280;25478;42.626;23.320;2022-08-01T03:34:38;93009.63;;;17.73;46.87
39789;BME280;25478;42.626;23.320;2022-08-01T03:37:25;93011.78;;;17.79;46.85
39789;BME280;25478;42.626;23.320;2022-08-01T03:40:08;93011.50;;;17.89;46.94
39789;BME280;25478;42.626;23.320;2022-08-01T03:42:37;93006.09;;;17.93;46.91
39789;BME280;25478;42.626;23.320;2022-08-01T03:45:07;92997.84;;;17.87;47.13
39789;BME280;25478;42.626;23.320;2022-08-01T03:47:35;93013.97;;;17.96;47.36
39789;BME280;25478;42.626;23.320;2022-08-01T03:50:04;92996.50;;;17.95;47.34
39789;BME280;25478;42.626;23.320;2022-08-01T03:52:32;93006.72;;;17.97;47.21
39789;BME280;25478;42.626;23.320;2022-08-01T03:55:03;93005.47;;;18.02;47.13
39789;BME280;25478;42.626;23.320;2022-08-01T03:57:30;93005.38;;;18.05;47.05
39789;BME280;25478;42.626;23.320;2022-08-01T04:00:00;93002.19;;;18.10;47.01
39789;BME280;25478;42.626;23.320;2022-08-01T04:02:26;92999.75;;;18.16;46.89
39789;BME280;25478;42.626;23.320;2022-08-01T04:04:53;92999.22;;;18.21;46.77
39789;BME280;25478;42.626;23.320;2022-08-01T04:07:32;93000.63;;;18.25;46.69
39789;BME280;25478;42.626;23.320;2022-08-01T04:09:58;93004.25;;;18.32;46.75
39789;BME280;25478;42.626;23.320;2022-08-01T04:12:23;93005.34;;;18.34;47.05
39789;BME280;25478;42.626;23.320;2022-08-01T04:14:49;93005.00;;;18.32;46.98
39789;BME280;25478;42.626;23.320;2022-08-01T04:17:16;93013.53;;;18.40;46.88
39789;BME280;25478;42.626;23.320;2022-08-01T04:19:42;93009.63;;;18.44;46.63
39789;BME280;25478;42.626;23.320;2022-08-01T04:22:09;92996.38;;;18.41;46.21
39789;BME280;25478;42.626;23.320;2022-08-01T04:24:36;93011.88;;;18.59;46.27
39789;BME280;25478;42.626;23.320;2022-08-01T04:27:05;93008.66;;;18.64;46.52
39789;BME280;25478;42.626;23.320;2022-08-01T04:29:32;92989.69;;;18.62;46.25
39789;BME280;25478;42.626;23.320;2022-08-01T04:31:59;93011.56;;;18.95;46.04
39789;BME280;25478;42.626;23.320;2022-08-01T04:34:28;93011.47;;;19.11;45.87
39789;BME280;25478;42.626;23.320;2022-08-01T04:36:56;93012.94;;;19.12;45.55
39789;BME280;25478;42.626;23.320;2022-08-01T04:39:28;93005.38;;;19.10;45.23
39789;BME280;25478;42.626;23.320;2022-08-01T04:42:00;93001.53;;;19.11;45.83
39789;BME280;25478;42.626;23.320;2022-08-01T04:44:29;93009.41;;;19.15;45.15
39789;BME280;25478;42.626;23.320;2022-08-01T04:46:59;92995.88;;;19.09;45.23
39789;BME280;25478;42.626;23.320;2022-08-01T04:49:26;93002.59;;;19.14;45.42
39789;BME280;25478;42.626;23.320;2022-08-01T04:51:54;93003.63;;;19.29;45.41
39789;BME280;25478;42.626;23.320;2022-08-01T04:54:24;93014.53;;;19.35;45.16
39789;BME280;25478;42.626;23.320;2022-08-01T04:56:50;93012.38;;;19.43;44.81
39789;BME280;25478;42.626;23.320;2022-08-01T04:59:16;93005.94;;;19.53;44.51
39789;BME280;25478;42.626;23.320;2022-08-01T05:02:00;92998.56;;;19.57;44.28
39789;BME280;25478;42.626;23.320;2022-08-01T05:04:25;93006.41;;;19.73;44.13
39789;BME280;25478;42.626;23.320;2022-08-01T05:06:51;93017.22;;;19.91;43.95
39789;BME280;25478;42.626;23.320;2022-08-01T05:09:16;93006.69;;;20.10;43.75
39789;BME280;25478;42.626;23.320;2022-08-01T05:11:42;92996.13;;;20.28;43.51
39789;BME280;25478;42.626;23.320;2022-08-01T05:14:07;93004.88;;;20.50;43.38
39789;BME280;25478;42.626;23.320;2022-08-01T05:16:33;93001.25;;;20.75;42.57
39789;BME280;25478;42.626;23.320;2022-08-01T05:18:58;93010.53;;;20.93;42.79
39789;BME280;25478;42.626;23.320;2022-08-01T05:21:24;93014.81;;;21.21;41.84
39789;BME280;25478;42.626;23.320;2022-08-01T05:23:49;93008.50;;;21.46;41.10
39789;BME280;25478;42.626;23.320;2022-08-01T05:26:15;93006.41;;;21.69;40.96
39789;BME280;25478;42.626;23.320;2022-08-01T05:28:41;93004.94;;;21.95;40.86
39789;BME280;25478;42.626;23.320;2022-08-01T05:31:06;92987.97;;;22.07;39.99
39789;BME280;25478;42.626;23.320;2022-08-01T05:33:32;92989.44;;;22.27;39.71
39789;BME280;25478;42.626;23.320;2022-08-01T05:35:58;92976.63;;;22.31;39.51
39789;BME280;25478;42.626;23.320;2022-08-01T05:38:23;92994.88;;;22.60;39.29
39789;BME280;25478;42.626;23.320;2022-08-01T05:40:49;93000.19;;;22.69;38.77
39789;BME280;25478;42.626;23.320;2022-08-01T05:43:14;92992.91;;;22.69;38.86
39789;BME280;25478;42.626;23.320;2022-08-01T05:45:40;93002.28;;;22.74;38.85
39789;BME280;25478;42.626;23.320;2022-08-01T05:48:06;93002.69;;;22.91;38.26
39789;BME280;25478;42.626;23.320;2022-08-01T05:50:33;93004.59;;;22.99;38.02
39789;BME280;25478;42.626;23.320;2022-08-01T05:52:58;93014.00;;;22.95;37.96
39789;BME280;25478;42.626;23.320;2022-08-01T05:55:24;93003.56;;;22.97;38.15
39789;BME280;25478;42.626;23.320;2022-08-01T05:57:49;93007.41;;;23.05;37.89
39789;BME280;25478;42.626;23.320;2022-08-01T06:00:15;93006.66;;;23.05;38.21
39789;BME280;25478;42.626;23.320;2022-08-01T06:02:42;93001.25;;;23.14;38.56
39789;BME280;25478;42.626;23.320;2022-08-01T06:05:09;92998.97;;;23.21;37.92
39789;BME280;25478;42.626;23.320;2022-08-01T06:07:34;93000.16;;;23.20;38.12
39789;BME280;25478;42.626;23.320;2022-08-01T06:10:00;93009.66;;;23.30;37.86
39789;BME280;25478;42.626;23.320;2022-08-01T06:12:25;93012.50;;;23.27;37.66
39789;BME280;25478;42.626;23.320;2022-08-01T06:14:51;93014.63;;;23.23;37.96
39789;BME280;25478;42.626;23.320;2022-08-01T06:17:16;93014.28;;;23.30;38.01
39789;BME280;25478;42.626;23.320;2022-08-01T06:19:42;93025.00;;;23.39;38.23
39789;BME280;25478;42.626;23.320;2022-08-01T06:22:07;93026.59;;;23.46;37.81
39789;BME280;25478;42.626;23.320;2022-08-01T06:24:33;93021.78;;;23.50;38.13
39789;BME280;25478;42.626;23.320;2022-08-01T06:26:58;93019.34;;;23.61;37.89
39789;BME280;25478;42.626;23.320;2022-08-01T06:29:24;93022.91;;;23.67;37.96
39789;BME280;25478;42.626;23.320;2022-08-01T06:31:49;93022.34;;;23.63;38.26
39789;BME280;25478;42.626;23.320;2022-08-01T06:34:15;93023.38;;;23.56;38.13
39789;BME280;25478;42.626;23.320;2022-08-01T06:36:40;93012.97;;;23.49;38.16
39789;BME280;25478;42.626;23.320;2022-08-01T06:39:06;93010.56;;;23.51;38.19
39789;BME280;25478;42.626;23.320;2022-08-01T06:41:31;93003.53;;;23.54;37.89
39789;BME280;25478;42.626;23.320;2022-08-01T06:43:57;93014.34;;;23.45;37.79
39789;BME280;25478;42.626;23.320;2022-08-01T06:46:25;93009.03;;;23.36;38.50
39789;BME280;25478;42.626;23.320;2022-08-01T06:48:50;93001.72;;;23.36;38.67
39789;BME280;25478;42.626;23.320;2022-08-01T06:51:16;93005.09;;;23.46;38.47
39789;BME280;25478;42.626;23.320;2022-08-01T06:53:45;93002.16;;;23.35;38.63
39789;BME280;25478;42.626;23.320;2022-08-01T06:56:10;93001.09;;;23.41;39.32
39789;BME280;25478;42.626;23.320;2022-08-01T06:58:36;92986.34;;;23.61;38.96
39789;BME280;25478;42.626;23.320;2022-08-01T07:01:05;93000.41;;;23.79;38.65
39789;BME280;25478;42.626;23.320;2022-08-01T07:03:35;92991.25;;;23.86;38.43
39789;BME280;25478;42.626;23.320;2022-08-01T07:06:00;92992.28;;;23.89;38.78
39789;BME280;25478;42.626;23.320;2022-08-01T07:08:26;92990.72;;;23.97;38.41
39789;BME280;25478;42.626;23.320;2022-08-01T07:10:51;92997.59;;;23.98;38.64
39789;BME280;25478;42.626;23.320;2022-08-01T07:13:17;92998.59;;;24.00;38.83
39789;BME280;25478;42.626;23.320;2022-08-01T07:15:47;93002.63;;;24.05;38.26
39789;BME280;25478;42.626;23.320;2022-08-01T07:18:12;92999.84;;;24.14;38.73
39789;BME280;25478;42.626;23.320;2022-08-01T07:20:38;92985.72;;;24.04;38.67
39789;BME280;25478;42.626;23.320;2022-08-01T07:23:03;92995.44;;;24.02;38.66
39789;BME280;25478;42.626;23.320;2022-08-01T07:25:29;92997.31;;;24.10;38.48
39789;BME280;25478;42.626;23.320;2022-08-01T07:27:55;93002.97;;;23.98;38.55
39789;BME280;25478;42.626;23.320;2022-08-01T07:30:20;93016.09;;;23.96;38.51
39789;BME280;25478;42.626;23.320;2022-08-01T07:32:46;93009.34;;;24.00;38.81
39789;BME280;25478;42.626;23.320;2022-08-01T07:35:12;93003.72;;;24.13;39.04
39789;BME280;25478;42.626;23.320;2022-08-01T07:37:37;93000.56;;;24.29;38.71
39789;BME280;25478;42.626;23.320;2022-08-01T07:40:04;93004.94;;;24.27;38.55
39789;BME280;25478;42.626;23.320;2022-08-01T07:42:31;92995.75;;;24.19;38.40
39789;BME280;25478;42.626;23.320;2022-08-01T07:44:56;93012.97;;;24.12;38.45
39789;BME280;25478;42.626;23.320;2022-08-01T07:47:26;92999.72;;;24.08;38.50
39789;BME280;25478;42.626;23.320;2022-08-01T07:49:52;92997.34;;;23.86;38.65
39789;BME280;25478;42.626;23.320;2022-08-01T07:52:23;93005.78;;;23.79;38.71
39789;BME280;25478;42.626;23.320;2022-08-01T07:54:49;92998.00;;;23.81;38.31
39789;BME280;25478;42.626;23.320;2022-08-01T07:57:14;92986.63;;;23.63;38.65
39789;BME280;25478;42.626;23.320;2022-08-01T07:59:40;92986.19;;;23.64;39.35
39789;BME280;25478;42.626;23.320;2022-08-01T08:02:05;92995.50;;;23.78;39.50
39789;BME280;25478;42.626;23.320;2022-08-01T08:04:31;92997.19;;;23.90;39.35
39789;BME280;25478;42.626;23.320;2022-08-01T08:06:56;92996.94;;;24.03;39.15
39789;BME280;25478;42.626;23.320;2022-08-01T08:09:22;93000.47;;;24.09;39.09
39789;BME280;25478;42.626;23.320;2022-08-01T08:11:48;93005.56;;;24.07;39.38
39789;BME280;25478;42.626;23.320;2022-08-01T08:14:15;93010.88;;;24.16;38.86
39789;BME280;25478;42.626;23.320;2022-08-01T08:16:41;93009.66;;;24.17;38.70
39789;BME280;25478;42.626;23.320;2022-08-01T08:19:07;93002.53;;;24.14;38.61
39789;BME280;25478;42.626;23.320;2022-08-01T08:21:33;93000.66;;;24.05;38.86
39789;BME280;25478;42.626;23.320;2022-08-01T08:23:59;92997.66;;;23.89;38.82
39789;BME280;25478;42.626;23.320;2022-08-01T08:26:43;93000.97;;;23.83;38.90
39789;BME280;25478;42.626;23.320;2022-08-01T08:29:09;92984.75;;;23.78;38.49
39789;BME280;25478;42.626;23.320;2022-08-01T08:31:34;93001.41;;;23.67;38.24
39789;BME280;25478;42.626;23.320;2022-08-01T08:34:00;93001.03;;;23.50;38.98
39789;BME280;25478;42.626;23.320;2022-08-01T08:36:25;93000.81;;;23.39;38.96
39789;BME280;25478;42.626;23.320;2022-08-01T08:38:51;93010.69;;;23.33;39.42
39789;BME280;25478;42.626;23.320;2022-08-01T08:41:16;93003.03;;;23.41;39.01
39789;BME280;25478;42.626;23.320;2022-08-01T08:43:42;93000.16;;;23.44;39.16
39789;BME280;25478;42.626;23.320;2022-08-01T08:46:08;93009.56;;;23.49;39.28
39789;BME280;25478;42.626;23.320;2022-08-01T08:48:36;93004.25;;;23.40;39.49
39789;BME280;25478;42.626;23.320;2022-08-01T08:51:02;92999.88;;;23.42;39.03
39789;BME280;25478;42.626;23.320;2022-08-01T08:53:28;93006.28;;;23.45;39.00
39789;BME280;25478;42.626;23.320;2022-08-01T08:55:57;92999.59;;;23.40;39.24
39789;BME280;25478;42.626;23.320;2022-08-01T08:58:25;92995.25;;;23.43;39.45
39789;BME280;25478;42.626;23.320;2022-08-01T09:00:53;92993.16;;;23.47;39.94
39789;BME280;25478;42.626;23.320;2022-08-01T09:03:19;92993.25;;;23.52;38.96
39789;BME280;25478;42.626;23.320;2022-08-01T09:05:44;92989.34;;;23.53;38.92
39789;BME280;25478;42.626;23.320;2022-08-01T09:08:10;92988.22;;;23.45;38.92
39789;BME280;25478;42.626;23.320;2022-08-01T09:10:35;92990.16;;;23.45;39.23
39789;BME280;25478;42.626;23.320;2022-08-01T09:18:06;92990.47;;;23.47;40.09
39789;BME280;25478;42.626;23.320;2022-08-01T09:20:31;92974.13;;;23.59;39.43
39789;BME280;25478;42.626;23.320;2022-08-01T09:22:57;92983.06;;;23.66;38.92
39789;BME280;25478;42.626;23.320;2022-08-01T09:25:22;92993.97;;;23.62;39.17
39789;BME280;25478;42.626;23.320;2022-08-01T09:28:02;92979.19;;;23.57;39.11
39789;BME280;25478;42.626;23.320;2022-08-01T09:30:28;92984.28;;;23.55;39.70
39789;BME280;25478;42.626;23.320;2022-08-01T09:32:58;92985.91;;;23.62;39.84
39789;BME280;25478;42.626;23.320;2022-08-01T09:35:35;92974.72;;;23.64;39.91
39789;BME280;25478;42.626;23.320;2022-08-01T09:40:59;92961.13;;;23.58;39.18
39789;BME280;25478;42.626;23.320;2022-08-01T09:43:28;92998.34;;;23.50;39.86
39789;BME280;25478;42.626;23.320;2022-08-01T09:45:54;92977.31;;;23.49;39.86
39789;BME280;25478;42.626;23.320;2022-08-01T09:48:21;92983.38;;;23.58;40.45
39789;BME280;25478;42.626;23.320;2022-08-01T09:50:48;92989.22;;;23.81;40.07
39789;BME280;25478;42.626;23.320;2022-08-01T09:53:14;92975.69;;;23.90;40.09
39789;BME280;25478;42.626;23.320;2022-08-01T09:55:41;92975.41;;;24.03;39.85
39789;BME280;25478;42.626;23.320;2022-08-01T09:58:07;92975.06;;;24.10;39.90
39789;BME280;25478;42.626;23.320;2022-08-01T10:00:34;92982.50;;;24.15;40.50
39789;BME280;25478;42.626;23.320;2022-08-01T10:03:18;92975.25;;;24.21;40.37
39789;BME280;25478;42.626;23.320;2022-08-01T10:05:44;92968.91;;;24.33;40.19
39789;BME280;25478;42.626;23.320;2022-08-01T10:08:09;92979.28;;;24.40;39.71
39789;BME280;25478;42.626;23.320;2022-08-01T10:10:37;92985.22;;;24.45;39.05
39789;BME280;25478;42.626;23.320;2022-08-01T10:13:04;92968.59;;;24.46;39.27
39789;BME280;25478;42.626;23.320;2022-08-01T10:15:30;92971.28;;;24.61;38.89
39789;BME280;25478;42.626;23.320;2022-08-01T10:17:58;92964.78;;;24.67;38.78
39789;BME280;25478;42.626;23.320;2022-08-01T10:20:26;92960.50;;;24.76;38.99
39789;BME280;25478;42.626;23.320;2022-08-01T10:22:54;92967.94;;;24.81;38.68
39789;BME280;25478;42.626;23.320;2022-08-01T10:25:21;92966.53;;;24.85;39.23
39789;BME280;25478;42.626;23.320;2022-08-01T10:27:52;92950.38;;;24.85;38.25
39789;BME280;25478;42.626;23.320;2022-08-01T10:30:20;92960.16;;;24.68;38.65
39789;BME280;25478;42.626;23.320;2022-08-01T10:32:46;92942.00;;;24.33;38.42
39789;BME280;25478;42.626;23.320;2022-08-01T10:35:13;92970.84;;;24.33;38.66
39789;BME280;25478;42.626;23.320;2022-08-01T10:37:43;92960.19;;;24.38;38.69
39789;BME280;25478;42.626;23.320;2022-08-01T10:40:11;92961.84;;;24.51;37.76
39789;BME280;25478;42.626;23.320;2022-08-01T10:42:39;92960.91;;;24.54;37.53
39789;BME280;25478;42.626;23.320;2022-08-01T10:45:07;92970.53;;;24.60;37.14
39789;BME280;25478;42.626;23.320;2022-08-01T10:47:40;92951.59;;;24.69;37.28
39789;BME280;25478;42.626;23.320;2022-08-01T10:50:11;92953.38;;;24.73;37.47
39789;BME280;25478;42.626;23.320;2022-08-01T10:52:38;92972.66;;;24.86;37.52
39789;BME280;25478;42.626;23.320;2022-08-01T10:55:08;92956.31;;;24.89;37.18
39789;BME280;25478;42.626;23.320;2022-08-01T10:57:47;92953.50;;;24.98;37.23
39789;BME280;25478;42.626;23.320;2022-08-01T11:00:20;92943.00;;;25.01;37.46
39789;BME280;25478;42.626;23.320;2022-08-01T11:03:00;92937.78;;;24.97;37.08
39789;BME280;25478;42.626;23.320;2022-08-01T11:05:31;92941.44;;;24.94;37.22
39789;BME280;25478;42.626;23.320;2022-08-01T11:08:01;92943.28;;;24.88;37.24
39789;BME280;25478;42.626;23.320;2022-08-01T11:10:37;92949.78;;;24.96;37.45
39789;BME280;25478;42.626;23.320;2022-08-01T11:13:04;92957.13;;;24.95;36.89
39789;BME280;25478;42.626;23.320;2022-08-01T11:15:33;92931.25;;;24.83;38.02
39789;BME280;25478;42.626;23.320;2022-08-01T11:18:04;92948.75;;;25.08;38.00
39789;BME280;25478;42.626;23.320;2022-08-01T11:21:01;92947.41;;;25.18;37.97
39789;BME280;25478;42.626;23.320;2022-08-01T11:23:47;92947.16;;;25.37;37.65
39789;BME280;25478;42.626;23.320;2022-08-01T11:26:13;92945.88;;;25.52;37.29
39789;BME280;25478;42.626;23.320;2022-08-01T11:28:39;92939.81;;;25.58;36.63
39789;BME280;25478;42.626;23.320;2022-08-01T11:38:50;92932.25;;;25.21;37.43
39789;BME280;25478;42.626;23.320;2022-08-01T11:41:36;92926.44;;;25.22;37.62
39789;BME280;25478;42.626;23.320;2022-08-01T11:52:23;92940.09;;;25.19;37.67
39789;BME280;25478;42.626;23.320;2022-08-01T11:54:50;92940.03;;;25.34;37.90
39789;BME280;25478;42.626;23.320;2022-08-01T11:57:42;92930.31;;;25.42;37.83
39789;BME280;25478;42.626;23.320;2022-08-01T12:00:16;92939.88;;;25.43;37.30
39789;BME280;25478;42.626;23.320;2022-08-01T12:02:42;92929.50;;;25.36;37.79
39789;BME280;25478;42.626;23.320;2022-08-01T12:05:16;92913.97;;;25.25;37.85
39789;BME280;25478;42.626;23.320;2022-08-01T12:07:49;92913.69;;;25.23;37.45
39789;BME280;25478;42.626;23.320;2022-08-01T12:10:18;92933.03;;;25.42;37.25
39789;BME280;25478;42.626;23.320;2022-08-01T12:15:14;92939.03;;;25.31;37.54
39789;BME280;25478;42.626;23.320;2022-08-01T12:17:42;92932.75;;;25.19;37.42
39789;BME280;25478;42.626;23.320;2022-08-01T12:20:10;92935.63;;;25.16;37.76
39789;BME280;25478;42.626;23.320;2022-08-01T12:22:36;92944.84;;;25.09;37.62
39789;BME280;25478;42.626;23.320;2022-08-01T12:25:10;92941.03;;;25.01;37.80
39789;BME280;25478;42.626;23.320;2022-08-01T12:27:38;92934.00;;;25.04;38.23
39789;BME280;25478;42.626;23.320;2022-08-01T12:30:09;92939.13;;;25.22;38.49
39789;BME280;25478;42.626;23.320;2022-08-01T12:32:37;92936.38;;;25.37;38.15
39789;BME280;25478;42.626;23.320;2022-08-01T12:37:34;92931.47;;;25.35;37.39
39789;BME280;25478;42.626;23.320;2022-08-01T12:40:00;92931.13;;;25.48;37.80
39789;BME280;25478;42.626;23.320;2022-08-01T12:42:26;92933.47;;;25.61;37.24
39789;BME280;25478;42.626;23.320;2022-08-01T12:44:52;92933.03;;;25.42;37.24
39789;BME280;25478;42.626;23.320;2022-08-01T12:47:19;92938.25;;;25.31;37.75
39789;BME280;25478;42.626;23.320;2022-08-01T12:49:45;92927.91;;;25.23;37.09
39789;BME280;25478;42.626;23.320;2022-08-01T12:52:12;92927.34;;;25.19;37.54
39789;BME280;25478;42.626;23.320;2022-08-01T12:55:00;92916.53;;;25.34;37.81
39789;BME280;25478;42.626;23.320;2022-08-01T12:57:26;92922.31;;;25.27;37.33
39789;BME280;25478;42.626;23.320;2022-08-01T13:00:12;92922.78;;;25.25;37.93
39789;BME280;25478;42.626;23.320;2022-08-01T13:02:39;92927.63;;;25.21;37.99
39789;BME280;25478;42.626;23.320;2022-08-01T13:05:06;92913.63;;;25.17;37.54
39789;BME280;25478;42.626;23.320;2022-08-01T13:07:50;92918.00;;;25.15;37.30
39789;BME280;25478;42.626;23.320;2022-08-01T13:10:29;92916.19;;;25.06;37.55
39789;BME280;25478;42.626;23.320;2022-08-01T13:12:58;92926.22;;;25.26;37.44
39789;BME280;25478;42.626;23.320;2022-08-01T13:15:29;92930.38;;;25.47;37.07
39789;BME280;25478;42.626;23.320;2022-08-01T13:18:00;92927.59;;;25.62;36.75
39789;BME280;25478;42.626;23.320;2022-08-01T13:20:32;92928.41;;;25.68;36.34
39789;BME280;25478;42.626;23.320;2022-08-01T13:23:18;92921.56;;;25.67;36.62
39789;BME280;25478;42.626;23.320;2022-08-01T13:25:54;92908.16;;;25.73;36.58
39789;BME280;25478;42.626;23.320;2022-08-01T13:28:25;92909.00;;;25.85;36.06
39789;BME280;25478;42.626;23.320;2022-08-01T13:30:56;92913.91;;;25.86;36.52
39789;BME280;25478;42.626;23.320;2022-08-01T13:33:24;92916.13;;;25.88;36.18
39789;BME280;25478;42.626;23.320;2022-08-01T13:35:51;92911.72;;;25.85;36.50
39789;BME280;25478;42.626;23.320;2022-08-01T13:38:17;92906.25;;;25.79;36.67
39789;BME280;25478;42.626;23.320;2022-08-01T13:40:43;92911.22;;;25.86;36.52